Time;durP1;ratioP1;P1;durP2;ratioP2;P2;SDS_P1;SDS_P2;PMS_P1;PMS_P2;Temp;Humidity;BMP_temperature;BMP_pressure;BME280_temperature;BME280_humidity;BME280_pressure;Samples;Min_cycle;Max_cycle;Signal;HPM_P1;HPM_P2
2023/06/17 00:02:07;;;;;;;8.77;4.60;;;;;;;;;;4345611;33;20019;-68
2023/06/17 00:04:32;;;;;;;8.00;4.80;;;;;;;;;;4346092;33;20157;-69
2023/06/17 00:06:58;;;;;;;6.47;5.32;;;;;;;;;;4344777;33;20047;-70
2023/06/17 00:09:25;;;;;;;7.40;4.62;;;;;;;;;;4346365;33;20032;-69
2023/06/17 00:11:51;;;;;;;12.35;5.62;;;;;;;;;;4345535;33;20526;-68
2023/06/17 00:14:16;;;;;;;7.55;5.45;;;;;;;;;;4345539;33;20024;-69
2023/06/17 00:16:45;;;;;;;7.82;5.05;;;;;;;;;;4346729;33;20249;-69
2023/06/17 00:19:16;;;;;;;6.72;5.00;;;;;;;;;;4346563;33;20032;-68
2023/06/17 00:21:49;;;;;;;9.05;5.82;;;;;;;;;;4344467;33;20016;-68
2023/06/17 00:24:15;;;;;;;10.57;5.87;;;;;;;;;;4344104;33;20032;-68
2023/06/17 00:26:40;;;;;;;7.95;5.68;;;;;;;;;;4345949;32;20493;-68
2023/06/17 00:29:05;;;;;;;8.35;5.25;;;;;;;;;;4344114;33;20031;-68
2023/06/17 00:31:31;;;;;;;10.25;6.00;;;;;;;;;;4345450;33;20020;-68
2023/06/17 00:33:56;;;;;;;8.30;5.60;;;;;;;;;;4345178;32;20398;-68
2023/06/17 00:36:21;;;;;;;7.82;6.07;;;;;;;;;;4344076;33;20024;-69
2023/06/17 00:38:46;;;;;;;13.57;5.93;;;;;;;;;;4345195;33;20124;-68
2023/06/17 00:41:11;;;;;;;11.32;5.93;;;;;;;;;;4347142;33;20322;-70
2023/06/17 00:43:36;;;;;;;8.90;5.60;;;;;;;;;;4345541;33;20070;-69
2023/06/17 00:46:02;;;;;;;8.53;6.00;;;;;;;;;;4345065;33;20059;-69
2023/06/17 00:48:27;;;;;;;8.85;5.85;;;;;;;;;;4345545;33;20112;-69
2023/06/17 00:50:52;;;;;;;10.82;7.32;;;;;;;;;;4345457;33;20059;-69
2023/06/17 00:53:17;;;;;;;8.80;6.18;;;;;;;;;;4345007;33;20371;-69
2023/06/17 00:55:44;;;;;;;10.85;6.72;;;;;;;;;;4344906;33;20362;-70
2023/06/17 00:58:10;;;;;;;10.00;6.62;;;;;;;;;;4345570;33;20062;-70
2023/06/17 01:00:35;;;;;;;10.23;7.40;;;;;;;;;;4344538;33;20442;-68
2023/06/17 01:03:00;;;;;;;13.35;7.82;;;;;;;;;;4345623;33;20319;-68
2023/06/17 01:05:27;;;;;;;9.25;7.12;;;;;;;;;;4344598;33;20020;-70
2023/06/17 01:08:04;;;;;;;10.57;8.32;;;;;;;;;;4346802;33;20058;-69
2023/06/17 01:10:48;;;;;;;11.82;7.22;;;;;;;;;;4346091;33;20381;-68
2023/06/17 01:13:15;;;;;;;10.98;7.90;;;;;;;;;;4346745;33;20031;-69
2023/06/17 01:15:40;;;;;;;10.65;7.75;;;;;;;;;;4347145;33;20090;-69
2023/06/17 01:18:07;;;;;;;8.85;7.25;;;;;;;;;;4343963;33;20094;-69
2023/06/17 01:20:32;;;;;;;10.25;7.93;;;;;;;;;;4346494;33;20023;-69
2023/06/17 01:22:58;;;;;;;13.70;8.27;;;;;;;;;;4346380;33;20103;-69
2023/06/17 01:25:29;;;;;;;11.35;8.60;;;;;;;;;;4345499;33;20032;-69
2023/06/17 01:27:59;;;;;;;10.60;8.75;;;;;;;;;;4346464;33;20118;-69
2023/06/17 01:30:28;;;;;;;11.98;9.70;;;;;;;;;;4345024;33;20448;-69
2023/06/17 01:32:53;;;;;;;12.05;9.25;;;;;;;;;;4345475;33;20055;-69
2023/06/17 01:35:18;;;;;;;13.43;9.02;;;;;;;;;;4346343;33;20054;-69
2023/06/17 01:37:50;;;;;;;13.45;8.93;;;;;;;;;;4345193;33;20050;-69
2023/06/17 01:40:19;;;;;;;12.98;8.82;;;;;;;;;;4346333;33;20031;-69
2023/06/17 01:42:45;;;;;;;13.45;9.43;;;;;;;;;;4348452;33;20339;-69
2023/06/17 01:45:11;;;;;;;13.62;9.77;;;;;;;;;;4348365;33;20040;-69
2023/06/17 01:47:36;;;;;;;13.20;9.15;;;;;;;;;;4349450;33;20450;-69
2023/06/17 01:50:03;;;;;;;13.77;9.50;;;;;;;;;;4349127;33;20107;-69
2023/06/17 01:52:28;;;;;;;12.48;9.25;;;;;;;;;;4348663;32;20499;-68
2023/06/17 01:54:54;;;;;;;16.00;10.27;;;;;;;;;;4347668;33;20056;-68
2023/06/17 01:57:19;;;;;;;15.13;9.98;;;;;;;;;;4339017;32;20044;-70
2023/06/17 01:59:44;;;;;;;13.00;9.80;;;;;;;;;;4344329;32;20035;-69
2023/06/17 02:02:09;;;;;;;12.57;10.10;;;;;;;;;;4348419;32;20028;-69
2023/06/17 02:04:35;;;;;;;11.15;8.77;;;;;;;;;;4333058;33;20036;-68
2023/06/17 02:07:00;;;;;;;13.13;9.73;;;;;;;;;;4333302;33;20050;-68
2023/06/17 02:09:25;;;;;;;12.65;8.98;;;;;;;;;;4331435;33;20024;-68
2023/06/17 02:11:50;;;;;;;11.27;9.40;;;;;;;;;;4332998;33;20323;-68
2023/06/17 02:14:15;;;;;;;14.02;8.98;;;;;;;;;;4333446;33;20050;-71
2023/06/17 02:16:45;;;;;;;10.82;8.75;;;;;;;;;;4332760;33;20020;-70
2023/06/17 02:19:12;;;;;;;12.27;9.43;;;;;;;;;;4346584;33;20053;-68
2023/06/17 02:21:37;;;;;;;11.07;8.40;;;;;;;;;;4347588;33;20406;-69
2023/06/17 02:24:02;;;;;;;10.25;8.85;;;;;;;;;;4348623;32;20067;-69
2023/06/17 02:26:28;;;;;;;12.93;8.57;;;;;;;;;;4343274;32;20044;-69
2023/06/17 02:28:53;;;;;;;14.32;9.23;;;;;;;;;;4333003;33;20094;-68
2023/06/17 02:31:19;;;;;;;11.70;8.85;;;;;;;;;;4331799;33;20025;-68
2023/06/17 02:33:44;;;;;;;11.35;9.32;;;;;;;;;;4331225;33;20434;-68
2023/06/17 02:36:09;;;;;;;10.90;9.03;;;;;;;;;;4333230;33;20418;-69
2023/06/17 02:38:35;;;;;;;10.80;9.20;;;;;;;;;;4334035;33;20179;-69
2023/06/17 02:41:01;;;;;;;13.95;9.50;;;;;;;;;;4332063;33;20024;-69
2023/06/17 02:43:26;;;;;;;13.03;8.40;;;;;;;;;;4332112;33;20410;-69
2023/06/17 02:45:51;;;;;;;10.80;8.57;;;;;;;;;;4332986;33;20129;-69
2023/06/17 02:48:16;;;;;;;12.23;8.73;;;;;;;;;;4332393;33;20023;-69
2023/06/17 02:50:41;;;;;;;16.48;10.38;;;;;;;;;;4333274;33;20117;-69
2023/06/17 02:53:07;;;;;;;11.67;9.27;;;;;;;;;;4332156;33;20395;-69
2023/06/17 02:55:32;;;;;;;12.40;9.88;;;;;;;;;;4332138;33;20156;-69
2023/06/17 02:57:58;;;;;;;15.55;9.10;;;;;;;;;;4333907;33;20028;-69
2023/06/17 03:00:23;;;;;;;12.17;10.07;;;;;;;;;;4332205;33;20043;-69
2023/06/17 03:02:48;;;;;;;20.40;9.52;;;;;;;;;;4332205;33;20200;-69
2023/06/17 03:05:14;;;;;;;14.85;9.70;;;;;;;;;;4333862;33;20160;-69
2023/06/17 03:07:40;;;;;;;12.43;10.15;;;;;;;;;;4332224;33;20035;-69
2023/06/17 03:10:05;;;;;;;12.77;9.50;;;;;;;;;;4332423;33;20116;-69
2023/06/17 03:12:32;;;;;;;11.65;9.75;;;;;;;;;;4333160;33;20083;-68
2023/06/17 03:14:57;;;;;;;15.02;9.20;;;;;;;;;;4336552;33;20055;-69
2023/06/17 03:17:24;;;;;;;14.80;9.85;;;;;;;;;;4348150;32;20083;-68
2023/06/17 03:19:49;;;;;;;12.30;10.45;;;;;;;;;;4344972;33;20512;-68
2023/06/17 03:22:15;;;;;;;13.57;10.20;;;;;;;;;;4345847;33;20028;-68
2023/06/17 03:24:40;;;;;;;15.20;10.63;;;;;;;;;;4346074;33;20481;-68
2023/06/17 03:27:05;;;;;;;14.65;10.82;;;;;;;;;;4345012;33;20066;-68
2023/06/17 03:29:30;;;;;;;11.98;9.73;;;;;;;;;;4346569;32;20078;-69
2023/06/17 03:31:57;;;;;;;13.60;10.27;;;;;;;;;;4347305;32;20342;-69
2023/06/17 03:34:22;;;;;;;10.43;9.10;;;;;;;;;;4347855;33;20023;-69
2023/06/17 03:36:48;;;;;;;10.95;9.07;;;;;;;;;;4346970;32;20054;-69
2023/06/17 03:39:13;;;;;;;14.57;10.07;;;;;;;;;;4346573;33;20109;-69
2023/06/17 03:41:39;;;;;;;13.68;11.23;;;;;;;;;;4347453;32;20066;-69
2023/06/17 03:44:04;;;;;;;14.30;12.00;;;;;;;;;;4346439;33;20024;-68
2023/06/17 03:46:29;;;;;;;15.07;11.27;;;;;;;;;;4346276;33;20035;-69
2023/06/17 03:48:54;;;;;;;14.50;11.13;;;;;;;;;;4346122;33;20024;-70
2023/06/17 03:51:20;;;;;;;19.45;13.07;;;;;;;;;;4346027;33;20462;-69
2023/06/17 03:53:45;;;;;;;14.93;11.95;;;;;;;;;;4347686;32;20053;-70
2023/06/17 03:56:10;;;;;;;17.12;14.38;;;;;;;;;;4345637;32;20448;-68
2023/06/17 03:58:35;;;;;;;16.52;13.57;;;;;;;;;;4345874;32;20024;-68
2023/06/17 04:01:00;;;;;;;18.40;13.70;;;;;;;;;;4344886;33;20028;-69
2023/06/17 04:03:26;;;;;;;19.58;13.35;;;;;;;;;;4345577;33;20095;-69
2023/06/17 04:05:52;;;;;;;22.13;13.18;;;;;;;;;;4345640;33;20556;-70
2023/06/17 04:08:18;;;;;;;21.35;14.35;;;;;;;;;;4347256;32;20426;-70
2023/06/17 04:10:43;;;;;;;15.07;12.70;;;;;;;;;;4343974;33;20059;-69
2023/06/17 04:13:09;;;;;;;22.17;14.63;;;;;;;;;;4344956;33;20079;-69
2023/06/17 04:15:34;;;;;;;25.55;17.45;;;;;;;;;;4346532;32;20094;-70
2023/06/17 04:18:02;;;;;;;23.60;17.50;;;;;;;;;;4346005;32;20028;-69
2023/06/17 04:20:27;;;;;;;26.25;17.95;;;;;;;;;;4347491;32;20054;-69
2023/06/17 04:22:52;;;;;;;23.45;18.52;;;;;;;;;;4346906;32;20052;-70
2023/06/17 04:25:20;;;;;;;22.87;18.73;;;;;;;;;;4345963;33;20109;-70
2023/06/17 04:27:46;;;;;;;27.70;19.27;;;;;;;;;;4347127;33;20055;-70
2023/06/17 04:30:15;;;;;;;25.52;19.37;;;;;;;;;;4345791;32;20024;-69
2023/06/17 04:32:40;;;;;;;27.37;19.77;;;;;;;;;;4352709;32;20027;-70
2023/06/17 04:35:05;;;;;;;23.55;19.12;;;;;;;;;;4349240;32;20093;-69
2023/06/17 04:37:32;;;;;;;25.30;18.90;;;;;;;;;;4361051;33;20115;-74
2023/06/17 04:39:58;;;;;;;26.33;18.27;;;;;;;;;;4345396;33;20051;-69
2023/06/17 04:42:24;;;;;;;23.70;18.83;;;;;;;;;;4347001;33;20070;-68
2023/06/17 04:44:49;;;;;;;19.98;17.85;;;;;;;;;;4343988;33;20027;-69
2023/06/17 04:47:19;;;;;;;25.62;17.83;;;;;;;;;;4345252;33;20047;-68
2023/06/17 04:49:45;;;;;;;22.80;16.98;;;;;;;;;;4329335;33;20021;-69
2023/06/17 04:52:11;;;;;;;19.77;17.12;;;;;;;;;;4344175;33;20052;-70
2023/06/17 04:54:36;;;;;;;19.23;15.63;;;;;;;;;;4340913;33;20078;-69
2023/06/17 04:57:01;;;;;;;23.15;16.48;;;;;;;;;;4334018;33;20102;-70
2023/06/17 04:59:27;;;;;;;18.05;15.73;;;;;;;;;;4346655;32;20094;-70
2023/06/17 05:01:52;;;;;;;18.02;15.65;;;;;;;;;;4344766;33;20050;-70
2023/06/17 05:04:17;;;;;;;16.52;13.45;;;;;;;;;;4344875;33;20065;-70
2023/06/17 05:06:44;;;;;;;18.67;14.60;;;;;;;;;;4345103;32;20110;-70
2023/06/17 05:09:09;;;;;;;25.23;17.08;;;;;;;;;;4344154;33;20032;-70
2023/06/17 05:11:34;;;;;;;20.83;15.18;;;;;;;;;;4344276;33;20060;-71
2023/06/17 05:13:59;;;;;;;16.87;14.60;;;;;;;;;;4344749;33;20028;-68
2023/06/17 05:16:24;;;;;;;18.80;14.70;;;;;;;;;;4345029;33;20089;-69
2023/06/17 05:18:50;;;;;;;18.33;12.77;;;;;;;;;;4343476;33;20136;-69
2023/06/17 05:21:19;;;;;;;14.48;11.45;;;;;;;;;;4344258;33;20043;-70
2023/06/17 05:23:45;;;;;;;18.90;13.90;;;;;;;;;;4344979;33;20456;-69
2023/06/17 05:26:10;;;;;;;17.17;13.20;;;;;;;;;;4340759;33;20052;-69
2023/06/17 05:28:35;;;;;;;15.55;12.13;;;;;;;;;;4340061;33;20051;-69
2023/06/17 05:31:00;;;;;;;13.77;11.32;;;;;;;;;;4328862;33;20083;-69
2023/06/17 05:33:25;;;;;;;13.85;10.68;;;;;;;;;;4331760;33;20050;-69
2023/06/17 05:35:50;;;;;;;13.87;10.87;;;;;;;;;;4332476;33;20039;-69
2023/06/17 05:38:16;;;;;;;14.73;9.52;;;;;;;;;;4343111;33;20538;-70
2023/06/17 05:40:41;;;;;;;16.03;10.70;;;;;;;;;;4343999;33;20404;-69
2023/06/17 05:43:06;;;;;;;14.50;10.38;;;;;;;;;;4339468;33;20132;-70
2023/06/17 05:45:31;;;;;;;17.43;12.80;;;;;;;;;;4344182;33;20099;-70
2023/06/17 05:47:56;;;;;;;15.48;11.10;;;;;;;;;;4346212;33;20150;-69
2023/06/17 05:50:22;;;;;;;13.07;11.00;;;;;;;;;;4342477;33;20074;-69
2023/06/17 05:52:48;;;;;;;15.85;11.02;;;;;;;;;;4343625;33;20117;-70
2023/06/17 05:55:13;;;;;;;15.05;9.00;;;;;;;;;;4345904;33;20146;-69
2023/06/17 05:57:38;;;;;;;10.90;8.38;;;;;;;;;;4344321;33;20024;-69
2023/06/17 06:00:04;;;;;;;11.68;8.93;;;;;;;;;;4346023;33;20095;-70
2023/06/17 06:02:29;;;;;;;11.68;9.70;;;;;;;;;;4349741;33;20082;-71
2023/06/17 06:04:54;;;;;;;10.48;7.68;;;;;;;;;;4356198;33;20035;-68
2023/06/17 06:07:19;;;;;;;11.23;8.00;;;;;;;;;;4345073;33;20059;-69
2023/06/17 06:09:44;;;;;;;13.95;8.55;;;;;;;;;;4345504;33;20422;-70
2023/06/17 06:12:12;;;;;;;14.90;9.73;;;;;;;;;;4359509;32;20023;-68
2023/06/17 06:14:37;;;;;;;14.20;9.48;;;;;;;;;;4359296;32;20120;-69
2023/06/17 06:17:02;;;;;;;10.80;9.05;;;;;;;;;;4357769;32;20082;-70
2023/06/17 06:19:28;;;;;;;12.85;9.60;;;;;;;;;;4348745;33;20376;-69
2023/06/17 06:21:53;;;;;;;13.53;9.10;;;;;;;;;;4344098;33;20059;-69
2023/06/17 06:24:18;;;;;;;11.73;9.18;;;;;;;;;;4348042;32;20135;-70
2023/06/17 06:26:43;;;;;;;14.85;8.80;;;;;;;;;;4346876;33;20374;-70
2023/06/17 06:29:09;;;;;;;12.90;8.95;;;;;;;;;;4347146;32;20057;-69
2023/06/17 06:34:03;;;;;;;12.32;8.77;;;;;;;;;;4389199;32;20084;-72
2023/06/17 06:36:28;;;;;;;9.13;7.68;;;;;;;;;;4378516;32;20043;-70
2023/06/17 06:38:53;;;;;;;11.87;8.03;;;;;;;;;;4391068;32;20035;-72
2023/06/17 06:41:18;;;;;;;7.30;6.47;;;;;;;;;;4378189;32;20146;-73
2023/06/17 06:43:44;;;;;;;10.27;7.93;;;;;;;;;;4389761;32;20096;-73
2023/06/17 06:46:09;;;;;;;9.35;7.40;;;;;;;;;;4374795;32;20035;-72
2023/06/17 06:48:35;;;;;;;9.93;6.87;;;;;;;;;;4376766;32;20308;-74
2023/06/17 06:51:01;;;;;;;11.93;7.53;;;;;;;;;;4389482;32;20419;-72
2023/06/17 06:53:26;;;;;;;12.07;7.70;;;;;;;;;;4389795;32;20031;-72
2023/06/17 06:55:51;;;;;;;10.10;6.72;;;;;;;;;;4391037;32;20046;-72
2023/06/17 06:58:17;;;;;;;11.07;6.40;;;;;;;;;;4390539;32;20093;-74
2023/06/17 07:00:42;;;;;;;7.65;6.85;;;;;;;;;;4376372;32;20559;-72
2023/06/17 07:03:07;;;;;;;12.32;7.32;;;;;;;;;;4390307;32;20043;-73
2023/06/17 07:05:32;;;;;;;13.77;8.60;;;;;;;;;;4382690;32;20424;-73
2023/06/17 07:07:58;;;;;;;9.23;7.32;;;;;;;;;;4376267;32;20158;-74
2023/06/17 07:10:23;;;;;;;11.05;7.95;;;;;;;;;;4390673;32;20081;-74
2023/06/17 07:12:48;;;;;;;11.43;8.07;;;;;;;;;;4390800;32;20085;-73
2023/06/17 07:15:14;;;;;;;10.60;8.13;;;;;;;;;;4392654;32;20086;-72
2023/06/17 07:17:39;;;;;;;9.93;7.45;;;;;;;;;;4391815;32;20164;-74
2023/06/17 07:20:05;;;;;;;9.77;7.72;;;;;;;;;;4381913;32;20038;-72
2023/06/17 07:22:30;;;;;;;10.02;7.32;;;;;;;;;;4376730;32;20035;-72
2023/06/17 07:24:55;;;;;;;9.73;8.02;;;;;;;;;;4375223;32;20027;-71
2023/06/17 07:27:20;;;;;;;9.02;8.10;;;;;;;;;;4376523;32;20027;-72
2023/06/17 07:29:46;;;;;;;10.18;8.48;;;;;;;;;;4375448;32;20424;-72
2023/06/17 07:32:11;;;;;;;10.53;8.27;;;;;;;;;;4374362;32;20368;-73
2023/06/17 07:34:36;;;;;;;12.80;7.70;;;;;;;;;;4361672;32;20132;-72
2023/06/17 07:37:02;;;;;;;11.60;8.57;;;;;;;;;;4366601;32;20030;-72
2023/06/17 07:39:27;;;;;;;10.77;7.72;;;;;;;;;;4374056;32;20176;-72
2023/06/17 07:41:52;;;;;;;9.23;6.80;;;;;;;;;;4375636;32;20031;-72
2023/06/17 07:44:18;;;;;;;11.23;7.97;;;;;;;;;;4370025;32;20143;-72
2023/06/17 07:46:43;;;;;;;8.10;6.53;;;;;;;;;;4375271;32;20131;-72
2023/06/17 07:49:08;;;;;;;8.98;5.62;;;;;;;;;;4363681;32;20082;-71
2023/06/17 07:51:33;;;;;;;7.62;5.95;;;;;;;;;;4360873;32;20066;-72
2023/06/17 07:53:58;;;;;;;9.07;6.03;;;;;;;;;;4360805;32;20039;-72
2023/06/17 07:56:25;;;;;;;8.90;5.90;;;;;;;;;;4360408;32;20132;-72
2023/06/17 07:58:50;;;;;;;11.57;6.43;;;;;;;;;;4361151;32;20233;-72
2023/06/17 08:01:15;;;;;;;9.33;5.87;;;;;;;;;;4359841;32;20162;-72
2023/06/17 08:03:40;;;;;;;10.95;5.72;;;;;;;;;;4361719;32;20209;-73
2023/06/17 08:06:06;;;;;;;7.55;5.68;;;;;;;;;;4376467;32;20352;-73
2023/06/17 08:08:31;;;;;;;9.77;5.60;;;;;;;;;;4361584;32;20031;-71
2023/06/17 08:10:56;;;;;;;8.57;6.73;;;;;;;;;;4376094;32;20412;-72
2023/06/17 08:13:21;;;;;;;10.68;5.80;;;;;;;;;;4373663;32;20169;-72
2023/06/17 08:15:46;;;;;;;8.10;5.05;;;;;;;;;;4373044;32;20079;-72
2023/06/17 08:18:12;;;;;;;9.35;5.80;;;;;;;;;;4373761;32;20046;-70
2023/06/17 08:20:37;;;;;;;6.20;5.40;;;;;;;;;;4372873;32;20078;-71
2023/06/17 08:23:03;;;;;;;7.25;6.00;;;;;;;;;;4360198;32;20069;-73
2023/06/17 08:25:28;;;;;;;6.97;4.97;;;;;;;;;;4361725;32;20035;-73
2023/06/17 08:27:53;;;;;;;6.47;5.20;;;;;;;;;;4373493;32;20469;-72
2023/06/17 08:30:18;;;;;;;7.67;5.33;;;;;;;;;;4372982;32;20166;-72
2023/06/17 08:32:43;;;;;;;8.07;4.53;;;;;;;;;;4369622;32;20406;-72
2023/06/17 08:35:09;;;;;;;12.77;4.93;;;;;;;;;;4389707;32;20096;-71
2023/06/17 08:37:34;;;;;;;7.03;4.97;;;;;;;;;;4363183;32;20034;-73
2023/06/17 08:39:59;;;;;;;9.18;5.20;;;;;;;;;;4362027;32;20031;-73
2023/06/17 08:42:26;;;;;;;7.93;4.53;;;;;;;;;;4375797;32;20113;-72
2023/06/17 08:44:52;;;;;;;7.87;4.40;;;;;;;;;;4374483;32;20035;-73
2023/06/17 08:47:17;;;;;;;7.55;4.80;;;;;;;;;;4360314;32;20074;-72
2023/06/17 08:49:44;;;;;;;8.70;4.62;;;;;;;;;;4358977;32;20031;-73
2023/06/17 08:52:11;;;;;;;10.00;5.25;;;;;;;;;;4359195;32;20059;-72
2023/06/17 08:54:40;;;;;;;7.20;4.30;;;;;;;;;;4359335;32;20028;-72
2023/06/17 08:57:08;;;;;;;5.25;4.00;;;;;;;;;;4358343;32;20056;-72
2023/06/17 08:59:33;;;;;;;8.65;4.40;;;;;;;;;;4359051;32;20036;-71
2023/06/17 09:01:59;;;;;;;7.93;4.80;;;;;;;;;;4359953;32;20031;-72
2023/06/17 09:04:26;;;;;;;6.43;5.25;;;;;;;;;;4359717;32;20062;-73
2023/06/17 09:06:52;;;;;;;6.45;5.20;;;;;;;;;;4371782;32;20039;-73
2023/06/17 09:09:17;;;;;;;5.20;4.40;;;;;;;;;;4374486;32;20096;-73
2023/06/17 09:11:47;;;;;;;7.47;4.53;;;;;;;;;;4375799;32;20098;-73
2023/06/17 09:14:12;;;;;;;6.25;4.30;;;;;;;;;;4374307;32;20039;-74
2023/06/17 09:16:38;;;;;;;8.88;4.55;;;;;;;;;;4374226;32;20493;-73
2023/06/17 09:19:04;;;;;;;5.30;4.32;;;;;;;;;;4372596;32;20090;-73
2023/06/17 09:21:30;;;;;;;10.48;4.40;;;;;;;;;;4371647;32;20035;-73
2023/06/17 09:23:59;;;;;;;10.40;4.40;;;;;;;;;;4374711;32;20043;-74
2023/06/17 09:26:25;;;;;;;10.48;4.40;;;;;;;;;;4373901;32;20039;-73
2023/06/17 09:28:51;;;;;;;9.98;4.28;;;;;;;;;;4359704;32;20469;-73
2023/06/17 09:31:18;;;;;;;8.20;4.05;;;;;;;;;;4374406;32;20091;-73
2023/06/17 09:33:43;;;;;;;7.65;4.57;;;;;;;;;;4373697;32;20050;-73
2023/06/17 09:36:08;;;;;;;5.68;4.45;;;;;;;;;;4358851;32;20081;-73
2023/06/17 09:38:36;;;;;;;7.90;4.00;;;;;;;;;;4373676;32;20050;-71
2023/06/17 09:41:02;;;;;;;6.03;4.70;;;;;;;;;;4375341;32;20039;-73
2023/06/17 09:43:27;;;;;;;6.25;3.90;;;;;;;;;;4374067;32;20171;-76
2023/06/17 09:45:55;;;;;;;10.82;4.22;;;;;;;;;;4361766;32;20456;-73
2023/06/17 09:48:24;;;;;;;8.20;5.00;;;;;;;;;;4360960;32;20379;-73
2023/06/17 09:50:52;;;;;;;9.25;4.93;;;;;;;;;;4373350;32;20091;-72
2023/06/17 09:53:17;;;;;;;5.18;4.07;;;;;;;;;;4359482;32;20063;-72
2023/06/17 09:55:43;;;;;;;7.60;4.22;;;;;;;;;;4375166;32;20101;-73
2023/06/17 09:58:08;;;;;;;7.65;4.85;;;;;;;;;;4361669;32;20031;-72
2023/06/17 10:00:34;;;;;;;12.52;4.78;;;;;;;;;;4360013;32;20047;-72
2023/06/17 10:03:00;;;;;;;11.43;4.65;;;;;;;;;;4375515;32;20035;-72
2023/06/17 10:05:27;;;;;;;6.25;3.90;;;;;;;;;;4373628;32;20039;-73
2023/06/17 10:07:53;;;;;;;8.32;4.37;;;;;;;;;;4363200;32;20031;-72
2023/06/17 10:10:18;;;;;;;9.85;4.55;;;;;;;;;;4362342;32;20050;-72
2023/06/17 10:12:45;;;;;;;4.93;3.80;;;;;;;;;;4360200;32;20074;-74
2023/06/17 10:15:11;;;;;;;9.73;4.00;;;;;;;;;;4376118;32;20055;-73
2023/06/17 10:17:38;;;;;;;7.07;4.53;;;;;;;;;;4377234;32;20114;-72
2023/06/17 10:20:05;;;;;;;10.40;4.75;;;;;;;;;;4368237;32;20103;-73
2023/06/17 10:22:31;;;;;;;7.45;4.00;;;;;;;;;;4365347;32;20043;-73
2023/06/17 10:24:56;;;;;;;5.32;4.22;;;;;;;;;;4361873;32;20382;-72
2023/06/17 10:27:21;;;;;;;6.43;4.05;;;;;;;;;;4359549;32;20058;-73
2023/06/17 10:29:48;;;;;;;5.75;3.72;;;;;;;;;;4363867;32;20157;-73
2023/06/17 10:32:18;;;;;;;6.80;3.75;;;;;;;;;;4377095;32;20104;-75
2023/06/17 10:35:03;;;;;;;5.20;4.12;;;;;;;;;;4376982;32;20023;-74
2023/06/17 10:37:28;;;;;;;9.07;4.20;;;;;;;;;;4375422;32;20097;-73
2023/06/17 10:39:53;;;;;;;8.73;4.07;;;;;;;;;;4375816;32;20454;-73
2023/06/17 10:42:24;;;;;;;5.32;3.78;;;;;;;;;;4371638;32;20131;-74
2023/06/17 10:44:50;;;;;;;5.37;4.10;;;;;;;;;;4377227;32;20042;-75
2023/06/17 10:47:19;;;;;;;8.73;3.78;;;;;;;;;;4365985;32;20054;-74
2023/06/17 10:49:45;;;;;;;8.13;4.00;;;;;;;;;;4371313;32;20062;-74
2023/06/17 10:52:14;;;;;;;7.00;3.70;;;;;;;;;;4375280;32;20090;-74
2023/06/17 10:54:49;;;;;;;7.32;3.95;;;;;;;;;;4361847;32;20039;-75
2023/06/17 10:57:14;;;;;;;6.22;4.10;;;;;;;;;;4377639;32;20042;-74
2023/06/17 10:59:40;;;;;;;6.97;4.55;;;;;;;;;;4376610;32;20043;-73
2023/06/17 11:02:08;;;;;;;9.15;4.22;;;;;;;;;;4363660;32;20069;-74
2023/06/17 11:04:36;;;;;;;7.82;4.28;;;;;;;;;;4361087;32;20753;-74
2023/06/17 11:07:05;;;;;;;6.50;4.20;;;;;;;;;;4361891;32;20027;-74
2023/06/17 11:09:31;;;;;;;11.07;4.55;;;;;;;;;;4359994;32;20043;-75
2023/06/17 11:11:57;;;;;;;6.28;3.70;;;;;;;;;;4360911;32;20039;-73
2023/06/17 11:14:22;;;;;;;6.00;4.22;;;;;;;;;;4359604;32;20058;-74
2023/06/17 11:16:50;;;;;;;5.97;4.43;;;;;;;;;;4360897;32;20427;-73
2023/06/17 11:19:16;;;;;;;4.10;3.70;;;;;;;;;;4372223;32;20038;-74
2023/06/17 11:21:41;;;;;;;8.43;3.97;;;;;;;;;;4362024;32;20400;-75
2023/06/17 11:24:06;;;;;;;6.53;4.00;;;;;;;;;;4375785;32;20150;-75
2023/06/17 11:26:32;;;;;;;9.68;3.90;;;;;;;;;;4363460;32;20379;-74
2023/06/17 11:28:57;;;;;;;8.15;3.65;;;;;;;;;;4375492;32;20058;-76
2023/06/17 11:31:25;;;;;;;7.18;3.70;;;;;;;;;;4375293;32;20077;-74
2023/06/17 11:33:56;;;;;;;9.77;4.18;;;;;;;;;;4374530;32;20055;-75
2023/06/17 11:36:21;;;;;;;6.47;4.12;;;;;;;;;;4363409;32;20027;-75
2023/06/17 11:38:48;;;;;;;6.43;3.60;;;;;;;;;;4361580;32;20061;-75
2023/06/17 11:41:14;;;;;;;7.85;4.37;;;;;;;;;;4361530;32;20135;-73
2023/06/17 11:43:39;;;;;;;6.07;3.70;;;;;;;;;;4377066;32;20116;-74
2023/06/17 11:46:05;;;;;;;5.82;3.58;;;;;;;;;;4374344;32;20416;-77
2023/06/17 11:48:34;;;;;;;3.90;3.37;;;;;;;;;;4376328;32;20035;-75
2023/06/17 11:50:59;;;;;;;7.55;4.28;;;;;;;;;;4361478;32;20077;-74
2023/06/17 11:53:36;;;;;;;12.48;4.12;;;;;;;;;;4376018;32;20031;-75
2023/06/17 11:56:07;;;;;;;5.93;3.42;;;;;;;;;;4374916;32;20362;-74
2023/06/17 11:58:39;;;;;;;5.45;3.78;;;;;;;;;;4368024;32;20384;-74
2023/06/17 12:01:05;;;;;;;7.75;4.05;;;;;;;;;;4361896;32;20043;-74
2023/06/17 12:03:30;;;;;;;5.40;3.50;;;;;;;;;;4361876;32;20102;-74
2023/06/17 12:05:56;;;;;;;4.78;3.33;;;;;;;;;;4361406;32;20293;-73
2023/06/17 12:08:22;;;;;;;4.78;3.47;;;;;;;;;;4368355;32;20035;-72
2023/06/17 12:10:47;;;;;;;9.73;3.80;;;;;;;;;;4374670;32;20158;-73
2023/06/17 12:13:13;;;;;;;6.55;3.40;;;;;;;;;;4374216;32;20182;-74
2023/06/17 12:15:38;;;;;;;5.43;3.65;;;;;;;;;;4375709;32;20416;-74
2023/06/17 12:18:10;;;;;;;7.27;3.47;;;;;;;;;;4361303;32;20061;-74
2023/06/17 12:20:36;;;;;;;4.50;3.50;;;;;;;;;;4374582;32;20135;-73
2023/06/17 12:23:01;;;;;;;4.32;3.20;;;;;;;;;;4376182;32;20399;-73
2023/06/17 12:25:27;;;;;;;5.85;3.62;;;;;;;;;;4374086;32;20073;-74
2023/06/17 12:27:52;;;;;;;8.93;3.22;;;;;;;;;;4360789;32;20340;-73
2023/06/17 12:30:17;;;;;;;6.30;3.77;;;;;;;;;;4375814;32;20055;-72
2023/06/17 12:32:42;;;;;;;3.97;3.22;;;;;;;;;;4375802;32;20578;-73
2023/06/17 12:35:09;;;;;;;4.53;3.45;;;;;;;;;;4375968;32;20074;-73
2023/06/17 12:37:36;;;;;;;6.50;3.50;;;;;;;;;;4361716;32;20061;-73
2023/06/17 12:40:06;;;;;;;4.40;3.45;;;;;;;;;;4361340;32;20031;-73
2023/06/17 12:42:31;;;;;;;12.63;4.10;;;;;;;;;;4376184;32;20026;-74
2023/06/17 12:44:57;;;;;;;4.62;3.20;;;;;;;;;;4366281;32;20057;-74
2023/06/17 12:47:22;;;;;;;3.60;2.75;;;;;;;;;;4359872;32;20085;-74
2023/06/17 12:49:48;;;;;;;9.30;3.78;;;;;;;;;;4360272;32;20055;-73
2023/06/17 12:52:13;;;;;;;4.05;3.35;;;;;;;;;;4360098;32;20035;-73
2023/06/17 12:54:39;;;;;;;3.42;3.12;;;;;;;;;;4362293;32;20077;-72
2023/06/17 12:57:04;;;;;;;6.27;3.07;;;;;;;;;;4375812;32;20192;-72
2023/06/17 12:59:30;;;;;;;6.90;3.12;;;;;;;;;;4375728;32;20580;-72
2023/06/17 13:01:55;;;;;;;5.30;3.55;;;;;;;;;;4360596;32;20337;-76
2023/06/17 13:04:21;;;;;;;6.75;3.15;;;;;;;;;;4358217;32;20069;-73
2023/06/17 13:06:46;;;;;;;5.30;2.80;;;;;;;;;;4360123;32;20050;-73
2023/06/17 13:09:12;;;;;;;3.50;2.78;;;;;;;;;;4359130;32;20567;-73
2023/06/17 13:11:37;;;;;;;4.32;3.35;;;;;;;;;;4358933;32;20417;-73
2023/06/17 13:14:03;;;;;;;3.60;3.07;;;;;;;;;;4358963;32;20027;-72
2023/06/17 13:16:29;;;;;;;5.47;3.00;;;;;;;;;;4359035;33;20142;-71
2023/06/17 13:18:56;;;;;;;5.07;3.10;;;;;;;;;;4362438;32;20057;-72
2023/06/17 13:21:21;;;;;;;4.62;3.00;;;;;;;;;;4360444;32;20103;-73
2023/06/17 13:23:46;;;;;;;4.55;2.78;;;;;;;;;;4360580;32;20085;-73
2023/06/17 13:26:11;;;;;;;3.22;2.80;;;;;;;;;;4357811;33;20150;-72
2023/06/17 13:28:38;;;;;;;6.53;2.97;;;;;;;;;;4359237;32;20032;-73
2023/06/17 13:31:03;;;;;;;6.43;4.00;;;;;;;;;;4359112;32;20107;-72
2023/06/17 13:33:29;;;;;;;9.50;3.70;;;;;;;;;;4372107;32;20055;-73
2023/06/17 13:35:55;;;;;;;4.10;3.12;;;;;;;;;;4375448;32;20110;-72
2023/06/17 13:38:20;;;;;;;3.40;2.58;;;;;;;;;;4362248;32;20117;-73
2023/06/17 13:40:45;;;;;;;6.55;3.22;;;;;;;;;;4378908;32;20035;-72
2023/06/17 13:43:10;;;;;;;4.47;3.23;;;;;;;;;;4378189;32;20042;-73
2023/06/17 13:45:36;;;;;;;3.53;3.07;;;;;;;;;;4362683;32;20465;-72
2023/06/17 13:48:01;;;;;;;6.75;3.25;;;;;;;;;;4348890;32;20161;-72
2023/06/17 13:50:26;;;;;;;4.85;2.85;;;;;;;;;;4363687;32;20081;-72
2023/06/17 13:52:51;;;;;;;7.70;2.87;;;;;;;;;;4361441;32;20447;-72
2023/06/17 13:55:16;;;;;;;5.07;2.90;;;;;;;;;;4361424;32;20146;-74
2023/06/17 13:57:42;;;;;;;3.30;2.45;;;;;;;;;;4362942;32;20081;-73
2023/06/17 14:00:08;;;;;;;3.50;3.00;;;;;;;;;;4362262;32;20388;-73
2023/06/17 14:02:33;;;;;;;7.55;3.12;;;;;;;;;;4363674;32;20462;-73
2023/06/17 14:04:59;;;;;;;5.80;3.12;;;;;;;;;;4376672;32;20054;-73
2023/06/17 14:07:24;;;;;;;3.60;2.70;;;;;;;;;;4375350;32;20357;-74
2023/06/17 14:09:49;;;;;;;4.90;3.30;;;;;;;;;;4372072;32;20043;-73
2023/06/17 14:12:14;;;;;;;3.78;2.80;;;;;;;;;;4378017;32;20122;-73
2023/06/17 14:14:39;;;;;;;4.32;3.10;;;;;;;;;;4376245;32;20058;-72
2023/06/17 14:17:05;;;;;;;4.80;2.92;;;;;;;;;;4376611;32;20148;-72
2023/06/17 14:19:31;;;;;;;5.97;3.25;;;;;;;;;;4363907;32;20038;-73
2023/06/17 14:21:59;;;;;;;3.45;2.78;;;;;;;;;;4377473;32;20074;-72
2023/06/17 14:24:24;;;;;;;7.60;3.62;;;;;;;;;;4375945;32;20027;-73
2023/06/17 14:27:07;;;;;;;3.72;2.72;;;;;;;;;;4378421;32;20056;-72
2023/06/17 14:29:36;;;;;;;5.87;3.03;;;;;;;;;;4376420;32;20058;-73